Terminal Aerodrome Forecast
Issued by NWS

Home | Current Version | Previous Version | Graphics & Text | Print | Product List | Glossary On
Versions: 1 2 3 4 5 6 7 8 9 10 11 12 13 14 15 16 17 18 19 20 21
000
FTUS43 KBIS 281100
TAFJMS
TAF
KJMS 281124Z 2812/2912 16006KT P6SM VCSH SCT025 OVC035
     FM281400 18007KT P6SM VCSH BKN025 OVC040
     FM282200 16009KT P6SM SCT035
     FM290600 19005KT P6SM VCFG SCT002=

USA.gov is the U.S. government's official web portal to all federal, state and local government web resources and services.